West Reading, Pennsylvania
Current Conditions -  °F | °C
As of 9:54 PM on Friday 19 Dec 2014 (Local Time) from KRDG Reporting Station
Overcast Overcast  
Wind Chill: 27°   Ceiling: 3800
Heat Index: 34°   Visibility: 10mi
Dew Point: 21°   Wind: 9mph
Humidity: 59%   Direction: 330°NNW
Pressure: 30.2"   Gusts: NA
Location:  40.3266°N, 75.9162°W
Report Text: KRDG 200254Z 33008KT 10SM OVC038 01/M06 A3020 RMK AO2 SLP233 T00111061 52011
Loading
Personal Weather Stations






























Interactive Weather Map New forecast layout! Learn more

10-Day Weather Forecast

Advertisements
Track Severe Weather on mobile